createdAt,value
2019-02-27T00:00:59.116Z,58.53
2019-02-27T00:03:29.096Z,58.63
2019-02-27T00:05:58.766Z,58.65
2019-02-27T00:08:27.900Z,58.87
2019-02-27T00:10:57.032Z,58.75
2019-02-27T00:13:26.218Z,58.87
2019-02-27T00:15:55.361Z,59.01
2019-02-27T00:18:24.533Z,59.26
2019-02-27T00:20:53.630Z,59.30
2019-02-27T00:23:24.146Z,59.46
2019-02-27T00:25:53.823Z,59.56
2019-02-27T00:28:23.440Z,59.37
2019-02-27T00:30:53.207Z,59.34
2019-02-27T00:33:25.081Z,59.38
2019-02-27T00:35:53.337Z,59.52
2019-02-27T00:38:22.782Z,59.87
2019-02-27T00:40:53.368Z,59.94
2019-02-27T00:43:22.499Z,60.21
2019-02-27T00:45:51.705Z,60.34
2019-02-27T00:48:20.813Z,60.18
2019-02-27T00:50:49.966Z,60.31
2019-02-27T00:53:19.155Z,60.46
2019-02-27T00:55:48.289Z,60.32
2019-02-27T00:58:17.464Z,60.24
2019-02-27T01:00:46.576Z,60.24
2019-02-27T01:03:15.755Z,60.15
2019-02-27T01:05:44.898Z,60.48
2019-02-27T01:08:14.048Z,60.34
2019-02-27T01:10:45.287Z,60.44
2019-02-27T01:13:14.064Z,60.42
2019-02-27T01:15:44.674Z,60.48
2019-02-27T01:18:13.976Z,60.46
2019-02-27T01:20:46.398Z,60.42
2019-02-27T01:23:13.969Z,60.52
2019-02-27T01:25:43.142Z,60.75
2019-02-27T01:28:12.264Z,60.92
2019-02-27T01:30:41.424Z,60.83
2019-02-27T01:33:10.570Z,60.70
2019-02-27T01:35:39.711Z,60.69
2019-02-27T01:38:08.862Z,60.67
2019-02-27T01:40:38.015Z,60.82
2019-02-27T01:43:07.164Z,60.94
2019-02-27T01:45:36.261Z,61.09
2019-02-27T01:48:08.951Z,61.30
2019-02-27T01:50:37.849Z,61.30
2019-02-27T01:53:08.293Z,61.28
2019-02-27T01:55:37.416Z,61.31
2019-02-27T01:58:09.188Z,61.49
2019-02-27T02:00:37.465Z,61.72
2019-02-27T02:03:07.003Z,61.89
2019-02-27T02:05:36.155Z,61.91
2019-02-27T02:08:07.724Z,61.83
2019-02-27T02:10:36.898Z,61.74
2019-02-27T02:13:14.795Z,61.86
2019-02-27T02:16:29.300Z,62.10
2019-02-27T02:19:44.224Z,62.33
2019-02-27T02:22:59.282Z,62.40
2019-02-27T02:26:01.880Z,62.64
2019-02-27T02:29:01.546Z,62.95
2019-02-27T02:31:55.031Z,63.32
2019-02-27T02:34:59.635Z,63.44
2019-02-27T02:38:13.999Z,63.26
2019-02-27T02:41:07.901Z,62.94
2019-02-27T02:43:57.669Z,63.09
2019-02-27T02:46:51.543Z,63.59
2019-02-27T02:49:42.635Z,63.76
2019-02-27T02:52:40.388Z,63.48
2019-02-27T02:55:32.270Z,63.46
2019-02-27T02:58:22.258Z,63.61
2019-02-27T03:01:27.896Z,63.86
2019-02-27T03:04:30.306Z,64.12
2019-02-27T03:07:24.150Z,64.00
2019-02-27T03:10:26.067Z,63.99
2019-02-27T03:13:41.983Z,63.82
2019-02-27T03:16:59.862Z,63.58
2019-02-27T03:19:49.443Z,63.56
2019-02-27T03:22:43.579Z,63.54
2019-02-27T03:25:40.857Z,63.63
2019-02-27T03:28:59.136Z,63.60
2019-02-27T03:32:18.377Z,63.53
2019-02-27T03:35:29.412Z,63.61
2019-02-27T03:38:35.461Z,63.63
2019-02-27T03:42:09.648Z,63.95
2019-02-27T03:44:48.546Z,64.00
2019-02-27T03:47:54.140Z,63.93
2019-02-27T03:51:28.357Z,64.07
2019-02-27T03:54:25.304Z,64.14
2019-02-27T03:57:23.539Z,64.17
2019-02-27T04:00:23.997Z,64.45
2019-02-27T04:03:24.145Z,64.57
2019-02-27T04:06:34.602Z,64.44
2019-02-27T04:09:05.593Z,64.37
2019-02-27T04:11:34.801Z,64.43
2019-02-27T04:14:24.462Z,64.48
2019-02-27T04:16:53.653Z,64.75
2019-02-27T04:19:22.752Z,64.96
2019-02-27T04:21:51.991Z,64.87
2019-02-27T04:24:22.428Z,64.78
2019-02-27T04:26:51.984Z,64.80
2019-02-27T04:29:21.182Z,64.79
2019-02-27T04:31:50.328Z,65.09
2019-02-27T04:34:19.544Z,65.16
2019-02-27T04:36:48.673Z,65.13
2019-02-27T04:39:17.833Z,65.17
2019-02-27T04:41:49.568Z,65.34
2019-02-27T04:44:18.019Z,65.30
2019-02-27T04:46:47.175Z,65.24
2019-02-27T04:49:16.397Z,65.21
2019-02-27T04:51:48.006Z,65.41
2019-02-27T04:54:16.415Z,65.33
2019-02-27T04:56:45.545Z,65.56
2019-02-27T04:59:18.419Z,65.54
2019-02-27T05:01:45.672Z,65.53
2019-02-27T05:04:14.821Z,65.28
2019-02-27T05:06:46.840Z,65.66
2019-02-27T05:09:14.822Z,65.80
2019-02-27T05:11:47.551Z,65.82
2019-02-27T05:14:14.900Z,65.67
2019-02-27T05:16:46.950Z,65.66
2019-02-27T05:19:15.317Z,65.65
2019-02-27T05:21:44.586Z,65.78
2019-02-27T05:24:13.760Z,65.85
2019-02-27T05:26:42.910Z,65.83
2019-02-27T05:29:12.096Z,65.85
2019-02-27T05:31:41.284Z,65.90
2019-02-27T05:34:13.548Z,65.65
2019-02-27T05:36:41.300Z,65.59
2019-02-27T05:39:10.455Z,65.80
2019-02-27T05:41:39.610Z,65.84
2019-02-27T05:44:08.771Z,65.87
2019-02-27T05:46:38.463Z,66.02
2019-02-27T05:49:08.290Z,65.79
2019-02-27T05:51:37.373Z,65.84
2019-02-27T05:54:06.545Z,65.76
2019-02-27T05:56:35.640Z,65.74
2019-02-27T05:59:04.771Z,65.79
2019-02-27T06:01:37.836Z,65.75
2019-02-27T06:04:04.800Z,65.83
2019-02-27T06:06:33.935Z,66.29
2019-02-27T06:09:04.063Z,66.28
2019-02-27T06:11:33.271Z,66.09
2019-02-27T06:14:02.420Z,66.14
2019-02-27T06:16:31.587Z,65.99
2019-02-27T06:19:00.752Z,66.16
2019-02-27T06:21:29.956Z,66.13
2019-02-27T06:23:59.113Z,66.24
2019-02-27T06:26:32.222Z,66.16
2019-02-27T06:28:59.254Z,66.05
2019-02-27T06:31:28.408Z,66.05
2019-02-27T06:33:59.029Z,66.09
2019-02-27T06:36:28.208Z,66.10
2019-02-27T06:39:00.099Z,65.83
2019-02-27T06:41:29.760Z,65.80
2019-02-27T06:44:01.390Z,65.52
2019-02-27T06:46:29.770Z,65.50
2019-02-27T06:48:58.894Z,65.51
2019-02-27T06:51:28.085Z,64.24
2019-02-27T06:53:57.211Z,60.28
2019-02-27T06:56:26.401Z,55.88
2019-02-27T06:58:55.587Z,51.32
2019-02-27T07:01:24.793Z,45.98
2019-02-27T07:03:53.969Z,42.09
2019-02-27T07:06:23.109Z,39.79
2019-02-27T07:08:52.267Z,38.68
2019-02-27T07:11:21.891Z,37.83
2019-02-27T07:13:51.072Z,38.78
2019-02-27T07:16:20.536Z,39.90
2019-02-27T07:18:51.086Z,39.35
2019-02-27T07:21:20.243Z,37.09
2019-02-27T07:23:49.439Z,35.63
2019-02-27T07:26:18.718Z,35.30
2019-02-27T07:28:47.848Z,35.34
2019-02-27T07:31:18.326Z,36.03
2019-02-27T07:33:47.562Z,35.73
2019-02-27T07:36:16.714Z,33.62
2019-02-27T07:38:48.226Z,31.61
2019-02-27T07:41:20.900Z,29.76
2019-02-27T07:43:51.358Z,28.42
2019-02-27T07:46:22.399Z,28.57
2019-02-27T07:48:51.433Z,28.58
2019-02-27T07:51:20.754Z,28.54
2019-02-27T07:53:53.756Z,28.28
2019-02-27T07:56:22.384Z,28.27
2019-02-27T07:58:51.536Z,28.41
2019-02-27T08:01:23.223Z,28.05
2019-02-27T08:03:51.603Z,27.83
2019-02-27T08:06:20.770Z,28.35
2019-02-27T08:08:49.887Z,28.67
2019-02-27T08:11:19.064Z,29.06
2019-02-27T08:13:48.287Z,28.46
2019-02-27T08:16:17.431Z,28.50
2019-02-27T08:18:46.579Z,29.13
2019-02-27T08:21:15.743Z,28.39
2019-02-27T08:23:44.881Z,28.12
2019-02-27T08:26:14.018Z,27.83
2019-02-27T08:28:43.165Z,27.80
2019-02-27T08:31:12.395Z,27.15
2019-02-27T08:33:41.612Z,26.28
2019-02-27T08:36:10.766Z,25.79
2019-02-27T08:38:39.921Z,26.06
2019-02-27T08:41:09.348Z,26.35
2019-02-27T08:43:41.231Z,26.59
2019-02-27T08:46:09.395Z,26.87
2019-02-27T08:48:38.569Z,26.83
2019-02-27T08:51:08.839Z,26.55
2019-02-27T08:53:38.096Z,25.62
2019-02-27T08:56:09.902Z,24.90
2019-02-27T08:58:38.162Z,24.79
2019-02-27T09:01:09.457Z,24.18
2019-02-27T09:03:38.590Z,23.27
2019-02-27T09:06:07.861Z,22.58
2019-02-27T09:08:37.012Z,21.54
2019-02-27T09:11:06.847Z,21.03
2019-02-27T09:13:36.145Z,19.93
2019-02-27T09:16:05.288Z,19.34
2019-02-27T09:18:36.522Z,18.80
2019-02-27T09:21:05.315Z,18.59
2019-02-27T09:23:34.464Z,18.68
2019-02-27T09:26:03.650Z,18.52
2019-02-27T09:28:32.853Z,18.36
2019-02-27T09:31:04.301Z,17.98
2019-02-27T09:33:38.872Z,17.99
2019-02-27T09:36:03.848Z,17.49
2019-02-27T09:38:32.994Z,17.53
2019-02-27T09:41:02.174Z,17.49
2019-02-27T09:43:32.328Z,17.40
2019-02-27T09:46:03.303Z,17.32
2019-02-27T09:48:33.438Z,16.79
2019-02-27T09:51:03.255Z,17.22
2019-02-27T09:53:34.025Z,16.56
2019-02-27T09:56:03.264Z,16.87
2019-02-27T09:58:32.422Z,16.85
2019-02-27T10:01:11.412Z,17.12
2019-02-27T10:03:40.604Z,16.51
2019-02-27T10:06:09.836Z,16.83
2019-02-27T10:08:39.113Z,16.30
2019-02-27T10:11:08.304Z,16.85
2019-02-27T10:13:37.911Z,17.21
2019-02-27T10:16:07.785Z,17.39
2019-02-27T10:18:36.989Z,17.66
2019-02-27T10:21:06.147Z,18.25
2019-02-27T10:23:35.349Z,18.51
2019-02-27T10:26:04.523Z,18.03
2019-02-27T10:28:38.707Z,18.58
2019-02-27T10:31:04.647Z,17.84
2019-02-27T10:33:33.805Z,17.67
2019-02-27T10:36:03.691Z,18.07
2019-02-27T10:38:33.465Z,19.06
2019-02-27T10:41:02.651Z,18.85
2019-02-27T10:43:31.803Z,19.46
2019-02-27T10:46:00.953Z,20.20
2019-02-27T10:48:30.225Z,19.07
2019-02-27T10:50:59.401Z,19.09
2019-02-27T10:53:28.822Z,20.09
2019-02-27T10:55:58.066Z,19.61
2019-02-27T10:58:27.236Z,20.08
2019-02-27T11:00:58.151Z,20.41
2019-02-27T11:03:27.464Z,20.72
2019-02-27T11:05:58.702Z,20.79
2019-02-27T11:08:29.618Z,20.28
2019-02-27T11:10:58.878Z,20.23
2019-02-27T11:13:28.063Z,19.78
2019-02-27T11:15:57.336Z,19.40
2019-02-27T11:18:26.526Z,20.02
2019-02-27T11:20:59.028Z,19.87
2019-02-27T11:23:26.707Z,19.89
2019-02-27T11:25:57.712Z,19.76
2019-02-27T11:28:26.916Z,19.74
2019-02-27T11:30:56.161Z,19.79
2019-02-27T11:33:26.128Z,20.58
2019-02-27T11:35:55.505Z,20.18
2019-02-27T11:38:25.442Z,20.59
2019-02-27T11:40:54.759Z,20.43
2019-02-27T11:43:24.025Z,21.49
2019-02-27T11:45:57.681Z,21.83
2019-02-27T11:48:24.061Z,21.46
2019-02-27T11:50:53.246Z,21.84
2019-02-27T11:53:22.488Z,22.08
2019-02-27T11:55:51.643Z,22.41
2019-02-27T11:58:20.921Z,22.65
2019-02-27T12:00:50.078Z,23.12
2019-02-27T12:03:19.290Z,23.33
2019-02-27T12:05:48.415Z,22.03
2019-02-27T12:08:17.632Z,21.97
2019-02-27T12:10:46.798Z,22.64
2019-02-27T12:13:16.016Z,22.82
2019-02-27T12:15:45.250Z,23.10
2019-02-27T12:18:14.416Z,23.73
2019-02-27T12:20:43.592Z,23.98
2019-02-27T12:23:12.747Z,24.70
2019-02-27T12:25:42.077Z,23.69
2019-02-27T12:28:11.279Z,23.41
2019-02-27T12:30:40.497Z,23.42
2019-02-27T12:33:09.723Z,22.76
2019-02-27T12:35:38.901Z,23.32
2019-02-27T12:38:08.563Z,22.72
2019-02-27T12:40:37.822Z,22.87
2019-02-27T12:43:06.986Z,21.72
2019-02-27T12:45:36.239Z,21.72
2019-02-27T12:48:05.381Z,21.86
2019-02-27T12:50:34.929Z,22.46
2019-02-27T12:53:04.209Z,21.75
2019-02-27T12:55:36.274Z,21.66
2019-02-27T12:58:04.405Z,21.62
2019-02-27T13:00:33.830Z,20.79
2019-02-27T13:03:03.037Z,20.75
2019-02-27T13:05:32.646Z,21.51
2019-02-27T13:08:01.781Z,22.13
2019-02-27T13:10:34.104Z,20.87
2019-02-27T13:13:01.898Z,20.74
2019-02-27T13:15:31.266Z,21.50
2019-02-27T13:18:00.431Z,21.07
2019-02-27T13:20:29.645Z,20.34
2019-02-27T13:23:04.076Z,19.96
2019-02-27T13:25:33.386Z,20.42
2019-02-27T13:28:02.544Z,20.78
2019-02-27T13:30:31.684Z,20.82
2019-02-27T13:33:01.993Z,20.70
2019-02-27T13:35:31.723Z,20.16
2019-02-27T13:38:01.224Z,20.38
2019-02-27T13:40:34.970Z,20.42
2019-02-27T13:43:01.484Z,20.71
2019-02-27T13:45:30.681Z,20.67
2019-02-27T13:48:04.649Z,18.89
2019-02-27T13:50:30.709Z,18.83
2019-02-27T13:52:59.837Z,19.24
2019-02-27T13:55:29.021Z,19.85
2019-02-27T13:57:59.281Z,20.11
2019-02-27T14:00:29.590Z,21.03
2019-02-27T14:02:58.724Z,20.64
2019-02-27T14:05:29.473Z,21.05
2019-02-27T14:07:58.906Z,21.39
2019-02-27T14:10:28.731Z,21.26
2019-02-27T14:12:57.949Z,20.76
2019-02-27T14:15:28.069Z,20.09
2019-02-27T14:17:57.619Z,20.84
2019-02-27T14:20:27.944Z,21.09
2019-02-27T14:22:57.730Z,21.56
2019-02-27T14:25:31.027Z,21.79
2019-02-27T14:27:58.249Z,21.76
2019-02-27T14:30:35.554Z,21.76
2019-02-27T14:33:03.966Z,21.51
2019-02-27T14:35:36.303Z,21.68
2019-02-27T14:38:04.119Z,21.21
2019-02-27T14:40:37.623Z,21.67
2019-02-27T14:43:04.657Z,21.80
2019-02-27T14:45:33.960Z,21.22
2019-02-27T14:48:03.093Z,21.35
2019-02-27T14:50:34.610Z,21.72
2019-02-27T14:53:03.333Z,21.76
2019-02-27T14:55:36.296Z,21.38
2019-02-27T14:58:03.460Z,22.06
2019-02-27T15:00:33.081Z,21.66
2019-02-27T15:03:02.330Z,21.85
2019-02-27T15:05:31.724Z,22.40
2019-02-27T15:08:00.886Z,23.19
2019-02-27T15:10:30.049Z,23.83
2019-02-27T15:12:59.209Z,24.26
2019-02-27T15:15:29.713Z,24.42
2019-02-27T15:17:59.027Z,24.26
2019-02-27T15:20:28.313Z,23.73
2019-02-27T15:22:57.623Z,23.78
2019-02-27T15:25:27.762Z,24.84
2019-02-27T15:27:59.648Z,26.11
2019-02-27T15:30:29.593Z,26.54
2019-02-27T15:33:03.827Z,26.81
2019-02-27T15:35:29.784Z,26.42
2019-02-27T15:37:59.066Z,26.09
2019-02-27T15:40:29.834Z,26.56
2019-02-27T15:42:59.273Z,26.85
2019-02-27T15:45:28.986Z,25.71
2019-02-27T15:47:58.224Z,25.25
2019-02-27T15:50:27.578Z,25.91
2019-02-27T15:52:56.859Z,26.48
2019-02-27T15:55:26.132Z,26.97
2019-02-27T15:57:55.310Z,27.29
2019-02-27T16:00:25.394Z,27.20
2019-02-27T16:02:54.723Z,27.36
2019-02-27T16:05:23.905Z,28.22
2019-02-27T16:07:53.207Z,28.70
2019-02-27T16:10:23.207Z,29.10
2019-02-27T16:12:52.402Z,29.50
2019-02-27T16:15:22.053Z,30.08
2019-02-27T16:17:51.431Z,30.63
2019-02-27T16:20:20.762Z,31.23
2019-02-27T16:22:49.959Z,31.59
2019-02-27T16:25:20.666Z,32.67
2019-02-27T16:27:49.878Z,34.21
2019-02-27T16:30:21.178Z,35.42
2019-02-27T16:32:50.459Z,36.32
2019-02-27T16:35:19.673Z,36.77
2019-02-27T16:37:49.173Z,37.01
2019-02-27T16:40:19.098Z,37.04
2019-02-27T16:42:48.382Z,36.96
2019-02-27T16:45:21.719Z,36.72
2019-02-27T16:47:50.971Z,36.96
2019-02-27T16:50:24.815Z,37.32
2019-02-27T16:52:53.876Z,37.71
2019-02-27T16:55:23.906Z,37.87
2019-02-27T16:57:56.467Z,38.08
2019-02-27T17:00:26.157Z,38.41
2019-02-27T17:02:56.955Z,38.92
2019-02-27T17:05:26.197Z,39.18
2019-02-27T17:08:00.307Z,39.46
2019-02-27T17:10:29.439Z,40.01
2019-02-27T17:12:59.257Z,40.67
2019-02-27T17:15:34.552Z,41.27
2019-02-27T17:17:59.858Z,41.79
2019-02-27T17:20:29.160Z,42.22
2019-02-27T17:22:58.431Z,42.53
2019-02-27T17:25:30.031Z,42.62
2019-02-27T17:27:58.800Z,42.71
2019-02-27T17:30:30.185Z,42.43
2019-02-27T17:33:01.449Z,42.49
2019-02-27T17:35:30.614Z,42.77
2019-02-27T17:37:59.809Z,42.97
2019-02-27T17:40:29.387Z,42.92
2019-02-27T17:43:00.516Z,42.79
2019-02-27T17:45:29.896Z,43.00
2019-02-27T17:47:59.427Z,43.35
2019-02-27T17:50:31.691Z,43.75
2019-02-27T17:52:59.563Z,44.14
2019-02-27T17:55:28.752Z,44.52
2019-02-27T17:57:59.173Z,44.89
2019-02-27T18:00:36.119Z,45.38
2019-02-27T18:03:05.967Z,45.75
2019-02-27T18:05:35.224Z,45.97
2019-02-27T18:08:04.555Z,46.18
2019-02-27T18:10:37.172Z,46.34
2019-02-27T18:13:04.734Z,46.57
2019-02-27T18:15:33.915Z,46.79
2019-02-27T18:18:03.085Z,47.03
2019-02-27T18:20:33.324Z,47.34
2019-02-27T18:23:02.552Z,47.48
2019-02-27T18:25:31.728Z,47.56
2019-02-27T18:28:00.945Z,47.60
2019-02-27T18:30:30.087Z,47.61
2019-02-27T18:33:01.091Z,47.90
2019-02-27T18:35:30.267Z,48.20
2019-02-27T18:37:59.500Z,48.38
2019-02-27T18:40:28.640Z,48.47
2019-02-27T18:42:57.835Z,48.66
2019-02-27T18:45:38.463Z,48.88
2019-02-27T18:48:10.038Z,49.08
2019-02-27T18:50:38.799Z,49.48
2019-02-27T18:53:07.596Z,49.54
2019-02-27T18:55:36.782Z,49.70
2019-02-27T18:58:06.115Z,49.91
2019-02-27T19:00:36.215Z,49.93
2019-02-27T19:03:06.339Z,49.79
2019-02-27T19:05:38.191Z,49.90
2019-02-27T19:08:06.440Z,50.03
2019-02-27T19:10:41.297Z,50.05
2019-02-27T19:13:07.082Z,50.14
2019-02-27T19:15:36.573Z,50.27
2019-02-27T19:18:06.573Z,50.48
2019-02-27T19:20:37.166Z,50.79
2019-02-27T19:23:07.128Z,50.82
2019-02-27T19:25:36.579Z,50.84
2019-02-27T19:28:06.994Z,50.79
2019-02-27T19:30:38.782Z,50.81
2019-02-27T19:33:08.068Z,50.93
2019-02-27T19:35:37.432Z,51.05
2019-02-27T19:38:06.967Z,51.16
2019-02-27T19:40:36.549Z,51.39
2019-02-27T19:43:06.769Z,51.55
2019-02-27T19:45:36.669Z,51.69
2019-02-27T19:48:06.465Z,51.79
2019-02-27T19:50:36.651Z,52.00
2019-02-27T19:53:07.156Z,52.00
2019-02-27T19:55:36.610Z,51.99
2019-02-27T19:58:06.022Z,52.10
2019-02-27T20:00:36.569Z,52.20
2019-02-27T20:03:06.725Z,52.38
2019-02-27T20:05:36.451Z,52.78
2019-02-27T20:08:09.852Z,53.00
2019-02-27T20:10:37.863Z,53.05
2019-02-27T20:13:07.158Z,53.16
2019-02-27T20:15:36.365Z,53.26
2019-02-27T20:18:08.264Z,53.41
2019-02-27T20:20:40.916Z,53.47
2019-02-27T20:23:09.120Z,53.61
2019-02-27T20:25:42.939Z,53.69
2019-02-27T20:28:10.423Z,53.78
2019-02-27T20:30:39.871Z,53.92
2019-02-27T20:33:09.462Z,54.08
2019-02-27T20:35:39.136Z,54.16
2019-02-27T20:38:08.487Z,54.37
2019-02-27T20:40:37.832Z,54.42
2019-02-27T20:43:07.488Z,54.69
2019-02-27T20:45:37.153Z,54.72
2019-02-27T20:48:06.658Z,54.75
2019-02-27T20:50:38.392Z,54.75
2019-02-27T20:53:07.995Z,54.86
2019-02-27T20:55:37.329Z,55.05
2019-02-27T20:58:06.579Z,55.27
2019-02-27T21:00:37.159Z,55.37
2019-02-27T21:03:06.667Z,55.54
2019-02-27T21:05:36.125Z,55.82
2019-02-27T21:08:05.377Z,56.06
2019-02-27T21:10:34.689Z,56.25
2019-02-27T21:13:03.955Z,56.18
2019-02-27T21:15:33.597Z,56.39
2019-02-27T21:18:02.881Z,56.59
2019-02-27T21:20:33.262Z,56.52
2019-02-27T21:23:02.604Z,56.58
2019-02-27T21:25:31.775Z,56.75
2019-02-27T21:28:00.946Z,56.76
2019-02-27T21:30:30.127Z,56.82
2019-02-27T21:32:59.403Z,56.72
2019-02-27T21:35:29.852Z,56.89
2019-02-27T21:37:59.076Z,56.99
2019-02-27T21:40:28.384Z,57.08
2019-02-27T21:42:57.571Z,57.21
2019-02-27T21:45:27.000Z,57.39
2019-02-27T21:47:56.175Z,57.49
2019-02-27T21:50:25.356Z,58.02
2019-02-27T21:52:55.626Z,58.19
2019-02-27T21:55:25.171Z,58.17
2019-02-27T21:57:58.018Z,58.29
2019-02-27T22:00:27.235Z,58.52
2019-02-27T22:02:56.431Z,58.19
2019-02-27T22:05:25.755Z,58.17
2019-02-27T22:07:55.001Z,58.47
2019-02-27T22:10:24.354Z,58.36
2019-02-27T22:12:53.534Z,58.37
2019-02-27T22:15:24.934Z,58.31
2019-02-27T22:17:54.074Z,58.36
2019-02-27T22:20:25.828Z,58.33
2019-02-27T22:22:54.189Z,58.47
2019-02-27T22:25:23.386Z,58.63
2019-02-27T22:27:52.514Z,58.58
2019-02-27T22:30:21.930Z,58.78
2019-02-27T22:32:51.080Z,58.84
2019-02-27T22:35:20.466Z,58.87
2019-02-27T22:37:52.271Z,58.93
2019-02-27T22:40:20.552Z,58.96
2019-02-27T22:42:50.095Z,58.96
2019-02-27T22:45:19.269Z,58.95
2019-02-27T22:47:48.476Z,58.98
2019-02-27T22:50:17.607Z,59.09
2019-02-27T22:52:47.899Z,59.13
2019-02-27T22:55:17.434Z,59.15
2019-02-27T22:57:46.559Z,59.08
2019-02-27T23:00:51.408Z,59.11
2019-02-27T23:03:23.774Z,59.19
2019-02-27T23:05:52.619Z,59.34
2019-02-27T23:08:22.981Z,59.38
2019-02-27T23:10:52.836Z,59.54
2019-02-27T23:13:22.026Z,59.82
2019-02-27T23:15:51.556Z,59.95
2019-02-27T23:18:20.719Z,60.08
2019-02-27T23:20:52.479Z,60.18
2019-02-27T23:23:20.858Z,60.52
2019-02-27T23:25:50.032Z,60.50
2019-02-27T23:28:19.206Z,60.51
2019-02-27T23:30:48.348Z,60.30
2019-02-27T23:33:17.526Z,60.27
2019-02-27T23:35:47.275Z,60.42
2019-02-27T23:38:17.561Z,60.54
2019-02-27T23:40:48.999Z,60.64
2019-02-27T23:43:19.596Z,60.86
2019-02-27T23:45:48.456Z,61.28
2019-02-27T23:48:17.661Z,61.11
2019-02-27T23:50:46.812Z,61.07
2019-02-27T23:53:16.009Z,61.37
2019-02-27T23:55:45.525Z,61.04
2019-02-27T23:58:14.694Z,61.05
